sensor_id;sensor_type;location;lat;lon;timestamp;P1;durP1;ratioP1;P2;durP2;ratioP2
47912;SDS011;33676;51.006;17.180;2022-11-20T00:01:36;38.80;;;23.60;;
47912;SDS011;33676;51.006;17.180;2022-11-20T00:04:04;38.90;;;24.90;;
47912;SDS011;33676;51.006;17.180;2022-11-20T00:06:33;49.00;;;27.60;;
47912;SDS011;33676;51.006;17.180;2022-11-20T00:09:01;42.60;;;25.70;;
47912;SDS011;33676;51.006;17.180;2022-11-20T00:11:30;44.30;;;26.10;;
47912;SDS011;33676;51.006;17.180;2022-11-20T00:14:00;40.60;;;24.40;;
47912;SDS011;33676;51.006;17.180;2022-11-20T00:16:31;40.20;;;24.50;;
47912;SDS011;33676;51.006;17.180;2022-11-20T00:19:00;38.30;;;24.00;;
47912;SDS011;33676;51.006;17.180;2022-11-20T00:21:29;42.20;;;24.50;;
47912;SDS011;33676;51.006;17.180;2022-11-20T00:23:58;34.60;;;24.30;;
47912;SDS011;33676;51.006;17.180;2022-11-20T00:26:28;47.00;;;26.10;;
47912;SDS011;33676;51.006;17.180;2022-11-20T00:28:59;46.60;;;25.90;;
47912;SDS011;33676;51.006;17.180;2022-11-20T00:31:29;40.50;;;27.50;;
47912;SDS011;33676;51.006;17.180;2022-11-20T00:33:58;47.30;;;25.20;;
47912;SDS011;33676;51.006;17.180;2022-11-20T00:36:28;37.10;;;24.50;;
47912;SDS011;33676;51.006;17.180;2022-11-20T00:38:59;43.20;;;27.00;;
47912;SDS011;33676;51.006;17.180;2022-11-20T00:41:29;44.60;;;25.50;;
47912;SDS011;33676;51.006;17.180;2022-11-20T00:43:57;39.60;;;23.90;;
47912;SDS011;33676;51.006;17.180;2022-11-20T00:46:27;44.00;;;25.80;;
47912;SDS011;33676;51.006;17.180;2022-11-20T00:48:56;39.10;;;25.40;;
47912;SDS011;33676;51.006;17.180;2022-11-20T00:51:26;42.60;;;25.40;;
47912;SDS011;33676;51.006;17.180;2022-11-20T00:53:57;39.20;;;26.40;;
47912;SDS011;33676;51.006;17.180;2022-11-20T00:56:26;45.00;;;26.50;;
47912;SDS011;33676;51.006;17.180;2022-11-20T00:58:54;39.20;;;24.80;;
47912;SDS011;33676;51.006;17.180;2022-11-20T01:01:24;40.40;;;24.30;;
47912;SDS011;33676;51.006;17.180;2022-11-20T01:03:55;42.60;;;23.50;;
47912;SDS011;33676;51.006;17.180;2022-11-20T01:06:33;42.00;;;24.60;;
47912;SDS011;33676;51.006;17.180;2022-11-20T01:09:07;42.90;;;26.20;;
47912;SDS011;33676;51.006;17.180;2022-11-20T01:11:41;43.70;;;26.90;;
47912;SDS011;33676;51.006;17.180;2022-11-20T01:14:16;37.30;;;24.60;;
47912;SDS011;33676;51.006;17.180;2022-11-20T01:16:49;39.60;;;24.10;;
47912;SDS011;33676;51.006;17.180;2022-11-20T01:19:20;45.70;;;27.90;;
47912;SDS011;33676;51.006;17.180;2022-11-20T01:21:53;46.00;;;26.80;;
47912;SDS011;33676;51.006;17.180;2022-11-20T01:24:22;44.70;;;28.40;;
47912;SDS011;33676;51.006;17.180;2022-11-20T01:26:51;44.90;;;26.30;;
47912;SDS011;33676;51.006;17.180;2022-11-20T01:29:22;49.80;;;29.60;;
47912;SDS011;33676;51.006;17.180;2022-11-20T01:31:52;48.90;;;30.30;;
47912;SDS011;33676;51.006;17.180;2022-11-20T01:34:21;47.50;;;27.80;;
47912;SDS011;33676;51.006;17.180;2022-11-20T01:36:51;50.60;;;30.70;;
47912;SDS011;33676;51.006;17.180;2022-11-20T01:39:23;54.90;;;33.20;;
47912;SDS011;33676;51.006;17.180;2022-11-20T01:41:54;53.60;;;31.00;;
47912;SDS011;33676;51.006;17.180;2022-11-20T01:47:37;48.40;;;29.30;;
47912;SDS011;33676;51.006;17.180;2022-11-20T01:50:19;45.80;;;29.60;;
47912;SDS011;33676;51.006;17.180;2022-11-20T01:53:04;55.30;;;31.00;;
47912;SDS011;33676;51.006;17.180;2022-11-20T01:55:39;51.50;;;27.40;;
47912;SDS011;33676;51.006;17.180;2022-11-20T01:58:21;46.90;;;28.60;;
47912;SDS011;33676;51.006;17.180;2022-11-20T02:00:55;50.80;;;31.00;;
47912;SDS011;33676;51.006;17.180;2022-11-20T02:03:24;58.50;;;33.10;;
47912;SDS011;33676;51.006;17.180;2022-11-20T02:06:07;55.40;;;31.40;;
47912;SDS011;33676;51.006;17.180;2022-11-20T02:08:58;49.60;;;27.90;;
47912;SDS011;33676;51.006;17.180;2022-11-20T02:11:26;43.80;;;28.20;;
47912;SDS011;33676;51.006;17.180;2022-11-20T02:13:55;50.60;;;28.90;;
47912;SDS011;33676;51.006;17.180;2022-11-20T02:16:29;49.00;;;29.00;;
47912;SDS011;33676;51.006;17.180;2022-11-20T02:19:01;47.10;;;27.20;;
47912;SDS011;33676;51.006;17.180;2022-11-20T02:22:10;48.20;;;29.30;;
47912;SDS011;33676;51.006;17.180;2022-11-20T02:24:42;47.90;;;30.10;;
47912;SDS011;33676;51.006;17.180;2022-11-20T02:27:14;49.30;;;31.70;;
47912;SDS011;33676;51.006;17.180;2022-11-20T02:29:46;50.40;;;29.70;;
47912;SDS011;33676;51.006;17.180;2022-11-20T02:32:25;49.90;;;30.60;;
47912;SDS011;33676;51.006;17.180;2022-11-20T02:34:55;45.30;;;27.10;;
47912;SDS011;33676;51.006;17.180;2022-11-20T02:37:32;51.20;;;28.60;;
47912;SDS011;33676;51.006;17.180;2022-11-20T02:40:02;54.90;;;29.70;;
47912;SDS011;33676;51.006;17.180;2022-11-20T02:42:31;48.50;;;28.90;;
47912;SDS011;33676;51.006;17.180;2022-11-20T02:45:00;52.60;;;29.90;;
47912;SDS011;33676;51.006;17.180;2022-11-20T02:47:28;52.30;;;30.50;;
47912;SDS011;33676;51.006;17.180;2022-11-20T02:49:57;52.90;;;30.40;;
47912;SDS011;33676;51.006;17.180;2022-11-20T02:52:25;52.50;;;31.60;;
47912;SDS011;33676;51.006;17.180;2022-11-20T02:54:54;53.70;;;30.20;;
47912;SDS011;33676;51.006;17.180;2022-11-20T02:57:22;42.40;;;27.60;;
47912;SDS011;33676;51.006;17.180;2022-11-20T02:59:51;49.40;;;29.60;;
47912;SDS011;33676;51.006;17.180;2022-11-20T03:02:19;56.20;;;31.50;;
47912;SDS011;33676;51.006;17.180;2022-11-20T03:04:48;54.20;;;30.90;;
47912;SDS011;33676;51.006;17.180;2022-11-20T03:07:16;48.50;;;29.00;;
47912;SDS011;33676;51.006;17.180;2022-11-20T03:09:45;51.40;;;31.50;;
47912;SDS011;33676;51.006;17.180;2022-11-20T03:12:13;52.70;;;27.40;;
47912;SDS011;33676;51.006;17.180;2022-11-20T03:14:42;46.20;;;27.60;;
47912;SDS011;33676;51.006;17.180;2022-11-20T03:17:10;40.50;;;26.60;;
47912;SDS011;33676;51.006;17.180;2022-11-20T03:19:39;52.40;;;29.80;;
47912;SDS011;33676;51.006;17.180;2022-11-20T03:22:07;45.40;;;27.70;;
47912;SDS011;33676;51.006;17.180;2022-11-20T03:24:35;46.60;;;29.10;;
47912;SDS011;33676;51.006;17.180;2022-11-20T03:27:04;46.10;;;27.20;;
47912;SDS011;33676;51.006;17.180;2022-11-20T03:29:32;45.60;;;27.20;;
47912;SDS011;33676;51.006;17.180;2022-11-20T03:32:00;46.00;;;27.90;;
47912;SDS011;33676;51.006;17.180;2022-11-20T03:34:29;45.60;;;26.30;;
47912;SDS011;33676;51.006;17.180;2022-11-20T03:36:57;46.40;;;29.20;;
47912;SDS011;33676;51.006;17.180;2022-11-20T03:39:25;52.90;;;29.70;;
47912;SDS011;33676;51.006;17.180;2022-11-20T03:41:54;48.50;;;29.90;;
47912;SDS011;33676;51.006;17.180;2022-11-20T03:44:23;52.50;;;30.70;;
47912;SDS011;33676;51.006;17.180;2022-11-20T03:46:51;49.30;;;29.60;;
47912;SDS011;33676;51.006;17.180;2022-11-20T03:49:19;47.00;;;29.30;;
47912;SDS011;33676;51.006;17.180;2022-11-20T03:51:48;52.40;;;32.50;;
47912;SDS011;33676;51.006;17.180;2022-11-20T03:54:17;47.30;;;30.90;;
47912;SDS011;33676;51.006;17.180;2022-11-20T03:56:45;54.30;;;34.50;;
47912;SDS011;33676;51.006;17.180;2022-11-20T03:59:13;52.60;;;31.40;;
47912;SDS011;33676;51.006;17.180;2022-11-20T04:01:42;51.20;;;30.80;;
47912;SDS011;33676;51.006;17.180;2022-11-20T04:04:16;46.90;;;28.30;;
47912;SDS011;33676;51.006;17.180;2022-11-20T04:06:45;48.70;;;29.20;;
47912;SDS011;33676;51.006;17.180;2022-11-20T04:09:13;57.60;;;33.30;;
47912;SDS011;33676;51.006;17.180;2022-11-20T04:11:42;45.60;;;28.10;;
47912;SDS011;33676;51.006;17.180;2022-11-20T04:14:14;46.50;;;28.50;;
47912;SDS011;33676;51.006;17.180;2022-11-20T04:16:43;41.20;;;27.70;;
47912;SDS011;33676;51.006;17.180;2022-11-20T04:19:14;54.00;;;32.90;;
47912;SDS011;33676;51.006;17.180;2022-11-20T04:21:44;72.50;;;44.40;;
47912;SDS011;33676;51.006;17.180;2022-11-20T04:24:12;103.00;;;66.60;;
47912;SDS011;33676;51.006;17.180;2022-11-20T04:26:41;114.90;;;67.10;;
47912;SDS011;33676;51.006;17.180;2022-11-20T04:29:11;81.30;;;44.40;;
47912;SDS011;33676;51.006;17.180;2022-11-20T04:31:40;56.90;;;34.10;;
47912;SDS011;33676;51.006;17.180;2022-11-20T04:34:10;46.10;;;27.90;;
47912;SDS011;33676;51.006;17.180;2022-11-20T04:36:39;52.90;;;31.90;;
47912;SDS011;33676;51.006;17.180;2022-11-20T04:39:12;51.80;;;31.30;;
47912;SDS011;33676;51.006;17.180;2022-11-20T04:44:11;54.30;;;30.90;;
47912;SDS011;33676;51.006;17.180;2022-11-20T04:46:41;49.60;;;34.30;;
47912;SDS011;33676;51.006;17.180;2022-11-20T04:49:10;46.80;;;30.70;;
47912;SDS011;33676;51.006;17.180;2022-11-20T04:51:39;52.20;;;30.20;;
47912;SDS011;33676;51.006;17.180;2022-11-20T04:54:08;49.80;;;32.20;;
47912;SDS011;33676;51.006;17.180;2022-11-20T04:56:38;51.60;;;29.70;;
47912;SDS011;33676;51.006;17.180;2022-11-20T04:59:06;47.20;;;29.70;;
47912;SDS011;33676;51.006;17.180;2022-11-20T05:01:35;48.40;;;30.50;;
47912;SDS011;33676;51.006;17.180;2022-11-20T05:04:04;48.80;;;28.60;;
47912;SDS011;33676;51.006;17.180;2022-11-20T05:06:33;48.70;;;27.80;;
47912;SDS011;33676;51.006;17.180;2022-11-20T05:09:02;51.10;;;29.10;;
47912;SDS011;33676;51.006;17.180;2022-11-20T05:11:31;47.70;;;30.00;;
47912;SDS011;33676;51.006;17.180;2022-11-20T05:13:59;54.30;;;31.20;;
47912;SDS011;33676;51.006;17.180;2022-11-20T05:16:28;44.90;;;28.00;;
47912;SDS011;33676;51.006;17.180;2022-11-20T05:18:56;48.70;;;30.20;;
47912;SDS011;33676;51.006;17.180;2022-11-20T05:21:25;45.80;;;28.50;;
47912;SDS011;33676;51.006;17.180;2022-11-20T05:23:53;53.50;;;30.60;;
47912;SDS011;33676;51.006;17.180;2022-11-20T05:26:22;53.10;;;32.00;;
47912;SDS011;33676;51.006;17.180;2022-11-20T05:28:51;60.30;;;35.20;;
47912;SDS011;33676;51.006;17.180;2022-11-20T05:31:21;97.60;;;54.20;;
47912;SDS011;33676;51.006;17.180;2022-11-20T05:33:56;78.30;;;42.50;;
47912;SDS011;33676;51.006;17.180;2022-11-20T05:36:25;57.60;;;30.40;;
47912;SDS011;33676;51.006;17.180;2022-11-20T05:38:55;56.40;;;34.70;;
47912;SDS011;33676;51.006;17.180;2022-11-20T05:41:29;69.70;;;37.20;;
47912;SDS011;33676;51.006;17.180;2022-11-20T05:43:57;141.90;;;70.10;;
47912;SDS011;33676;51.006;17.180;2022-11-20T05:46:26;186.00;;;85.80;;
47912;SDS011;33676;51.006;17.180;2022-11-20T05:48:57;112.90;;;57.20;;
47912;SDS011;33676;51.006;17.180;2022-11-20T05:51:26;220.70;;;118.20;;
47912;SDS011;33676;51.006;17.180;2022-11-20T05:53:58;153.80;;;79.50;;
47912;SDS011;33676;51.006;17.180;2022-11-20T05:56:27;210.30;;;110.70;;
47912;SDS011;33676;51.006;17.180;2022-11-20T05:58:55;127.50;;;69.00;;
47912;SDS011;33676;51.006;17.180;2022-11-20T06:01:25;58.60;;;34.80;;
47912;SDS011;33676;51.006;17.180;2022-11-20T06:03:53;48.30;;;29.20;;
47912;SDS011;33676;51.006;17.180;2022-11-20T06:06:22;44.00;;;26.00;;
47912;SDS011;33676;51.006;17.180;2022-11-20T06:08:50;55.20;;;30.20;;
47912;SDS011;33676;51.006;17.180;2022-11-20T06:11:19;52.90;;;33.20;;
47912;SDS011;33676;51.006;17.180;2022-11-20T06:13:48;51.70;;;31.30;;
47912;SDS011;33676;51.006;17.180;2022-11-20T06:16:18;44.00;;;29.80;;
47912;SDS011;33676;51.006;17.180;2022-11-20T06:18:47;45.60;;;31.10;;
47912;SDS011;33676;51.006;17.180;2022-11-20T06:21:18;44.80;;;28.90;;
47912;SDS011;33676;51.006;17.180;2022-11-20T06:23:49;38.20;;;26.40;;
47912;SDS011;33676;51.006;17.180;2022-11-20T06:26:20;44.40;;;30.60;;
47912;SDS011;33676;51.006;17.180;2022-11-20T06:28:51;47.70;;;32.00;;
47912;SDS011;33676;51.006;17.180;2022-11-20T06:31:21;44.70;;;32.50;;
47912;SDS011;33676;51.006;17.180;2022-11-20T06:33:52;47.60;;;29.20;;
47912;SDS011;33676;51.006;17.180;2022-11-20T06:36:21;48.60;;;28.80;;
47912;SDS011;33676;51.006;17.180;2022-11-20T06:38:50;49.70;;;28.30;;
47912;SDS011;33676;51.006;17.180;2022-11-20T06:41:21;44.90;;;25.30;;
47912;SDS011;33676;51.006;17.180;2022-11-20T06:43:50;43.50;;;27.50;;
47912;SDS011;33676;51.006;17.180;2022-11-20T06:46:19;47.50;;;29.00;;
47912;SDS011;33676;51.006;17.180;2022-11-20T06:48:49;49.10;;;33.90;;
47912;SDS011;33676;51.006;17.180;2022-11-20T06:51:18;43.00;;;26.10;;
47912;SDS011;33676;51.006;17.180;2022-11-20T06:53:47;44.10;;;30.00;;
47912;SDS011;33676;51.006;17.180;2022-11-20T06:56:15;47.90;;;27.10;;
47912;SDS011;33676;51.006;17.180;2022-11-20T06:58:43;52.00;;;28.50;;
47912;SDS011;33676;51.006;17.180;2022-11-20T07:01:13;66.40;;;40.40;;
47912;SDS011;33676;51.006;17.180;2022-11-20T07:03:43;73.10;;;38.90;;
47912;SDS011;33676;51.006;17.180;2022-11-20T07:06:12;74.50;;;39.50;;
47912;SDS011;33676;51.006;17.180;2022-11-20T07:08:40;76.80;;;42.50;;
47912;SDS011;33676;51.006;17.180;2022-11-20T07:11:11;81.30;;;46.00;;
47912;SDS011;33676;51.006;17.180;2022-11-20T07:13:40;76.40;;;42.50;;
47912;SDS011;33676;51.006;17.180;2022-11-20T07:16:08;76.70;;;43.70;;
47912;SDS011;33676;51.006;17.180;2022-11-20T07:18:37;75.50;;;41.60;;
47912;SDS011;33676;51.006;17.180;2022-11-20T07:21:08;70.00;;;39.00;;
47912;SDS011;33676;51.006;17.180;2022-11-20T07:23:38;68.20;;;34.70;;
47912;SDS011;33676;51.006;17.180;2022-11-20T07:26:10;63.60;;;33.30;;
47912;SDS011;33676;51.006;17.180;2022-11-20T07:28:39;48.40;;;30.40;;
47912;SDS011;33676;51.006;17.180;2022-11-20T07:31:07;57.30;;;31.20;;
47912;SDS011;33676;51.006;17.180;2022-11-20T07:33:37;47.40;;;28.60;;
47912;SDS011;33676;51.006;17.180;2022-11-20T07:36:06;50.60;;;29.30;;
47912;SDS011;33676;51.006;17.180;2022-11-20T07:38:34;51.60;;;30.50;;
47912;SDS011;33676;51.006;17.180;2022-11-20T07:41:03;46.50;;;32.10;;
47912;SDS011;33676;51.006;17.180;2022-11-20T07:43:31;48.90;;;28.70;;
47912;SDS011;33676;51.006;17.180;2022-11-20T07:46:06;54.10;;;32.10;;
47912;SDS011;33676;51.006;17.180;2022-11-20T07:48:35;43.10;;;27.50;;
47912;SDS011;33676;51.006;17.180;2022-11-20T07:51:03;62.10;;;32.10;;
47912;SDS011;33676;51.006;17.180;2022-11-20T07:53:32;69.80;;;38.00;;
47912;SDS011;33676;51.006;17.180;2022-11-20T07:56:01;135.20;;;67.70;;
47912;SDS011;33676;51.006;17.180;2022-11-20T07:58:31;67.50;;;34.60;;
47912;SDS011;33676;51.006;17.180;2022-11-20T08:01:05;162.40;;;80.20;;
47912;SDS011;33676;51.006;17.180;2022-11-20T08:03:34;70.30;;;39.20;;
47912;SDS011;33676;51.006;17.180;2022-11-20T08:06:06;45.00;;;26.40;;
47912;SDS011;33676;51.006;17.180;2022-11-20T08:08:34;35.70;;;25.80;;
47912;SDS011;33676;51.006;17.180;2022-11-20T08:11:09;36.30;;;23.90;;
47912;SDS011;33676;51.006;17.180;2022-11-20T08:13:56;39.80;;;29.00;;
47912;SDS011;33676;51.006;17.180;2022-11-20T08:16:41;41.50;;;26.40;;
47912;SDS011;33676;51.006;17.180;2022-11-20T08:19:12;45.00;;;27.80;;
47912;SDS011;33676;51.006;17.180;2022-11-20T08:21:42;44.30;;;27.30;;
47912;SDS011;33676;51.006;17.180;2022-11-20T08:24:12;43.50;;;27.00;;
47912;SDS011;33676;51.006;17.180;2022-11-20T08:26:40;42.70;;;26.60;;
47912;SDS011;33676;51.006;17.180;2022-11-20T08:29:09;32.80;;;22.20;;
47912;SDS011;33676;51.006;17.180;2022-11-20T08:31:37;40.20;;;25.20;;
47912;SDS011;33676;51.006;17.180;2022-11-20T08:34:26;35.80;;;23.90;;
47912;SDS011;33676;51.006;17.180;2022-11-20T08:36:54;37.60;;;23.40;;
47912;SDS011;33676;51.006;17.180;2022-11-20T08:39:22;37.80;;;23.90;;
47912;SDS011;33676;51.006;17.180;2022-11-20T08:41:51;34.30;;;23.60;;
47912;SDS011;33676;51.006;17.180;2022-11-20T08:44:19;39.90;;;23.60;;
47912;SDS011;33676;51.006;17.180;2022-11-20T08:46:48;35.50;;;24.80;;
47912;SDS011;33676;51.006;17.180;2022-11-20T08:49:16;37.50;;;23.70;;
47912;SDS011;33676;51.006;17.180;2022-11-20T08:51:46;36.00;;;24.20;;
47912;SDS011;33676;51.006;17.180;2022-11-20T08:54:16;41.70;;;24.30;;
47912;SDS011;33676;51.006;17.180;2022-11-20T08:56:48;31.30;;;23.00;;
47912;SDS011;33676;51.006;17.180;2022-11-20T08:59:16;34.50;;;23.40;;
47912;SDS011;33676;51.006;17.180;2022-11-20T09:02:05;31.50;;;20.60;;
47912;SDS011;33676;51.006;17.180;2022-11-20T09:04:33;34.30;;;25.10;;
47912;SDS011;33676;51.006;17.180;2022-11-20T09:07:03;30.60;;;21.20;;
47912;SDS011;33676;51.006;17.180;2022-11-20T09:09:31;31.10;;;22.20;;
47912;SDS011;33676;51.006;17.180;2022-11-20T09:12:00;33.50;;;23.20;;
47912;SDS011;33676;51.006;17.180;2022-11-20T09:14:29;34.60;;;23.10;;
47912;SDS011;33676;51.006;17.180;2022-11-20T09:16:58;32.10;;;23.30;;
47912;SDS011;33676;51.006;17.180;2022-11-20T09:19:26;27.80;;;21.40;;
47912;SDS011;33676;51.006;17.180;2022-11-20T09:22:03;30.30;;;21.30;;
47912;SDS011;33676;51.006;17.180;2022-11-20T09:24:31;34.10;;;21.80;;
47912;SDS011;33676;51.006;17.180;2022-11-20T09:27:04;30.80;;;21.80;;
47912;SDS011;33676;51.006;17.180;2022-11-20T09:29:33;29.80;;;22.20;;
47912;SDS011;33676;51.006;17.180;2022-11-20T09:32:01;31.60;;;23.90;;
47912;SDS011;33676;51.006;17.180;2022-11-20T09:34:30;29.50;;;22.00;;
47912;SDS011;33676;51.006;17.180;2022-11-20T09:36:58;32.40;;;23.00;;
47912;SDS011;33676;51.006;17.180;2022-11-20T09:39:33;29.30;;;20.70;;
47912;SDS011;33676;51.006;17.180;2022-11-20T09:42:26;26.20;;;20.60;;
47912;SDS011;33676;51.006;17.180;2022-11-20T09:45:30;28.30;;;20.90;;
47912;SDS011;33676;51.006;17.180;2022-11-20T09:51:22;27.90;;;20.50;;
47912;SDS011;33676;51.006;17.180;2022-11-20T09:54:13;27.20;;;19.80;;
47912;SDS011;33676;51.006;17.180;2022-11-20T09:56:50;24.80;;;18.50;;
47912;SDS011;33676;51.006;17.180;2022-11-20T09:59:29;26.20;;;20.20;;
47912;SDS011;33676;51.006;17.180;2022-11-20T10:05:19;28.40;;;22.70;;
47912;SDS011;33676;51.006;17.180;2022-11-20T10:10:47;28.00;;;21.60;;
47912;SDS011;33676;51.006;17.180;2022-11-20T10:16:44;30.00;;;21.80;;
47912;SDS011;33676;51.006;17.180;2022-11-20T10:20:00;25.80;;;19.50;;
47912;SDS011;33676;51.006;17.180;2022-11-20T10:25:49;25.80;;;20.40;;
47912;SDS011;33676;51.006;17.180;2022-11-20T10:28:34;23.40;;;19.00;;
47912;SDS011;33676;51.006;17.180;2022-11-20T10:31:11;26.10;;;18.90;;
47912;SDS011;33676;51.006;17.180;2022-11-20T10:34:03;24.10;;;18.20;;
47912;SDS011;33676;51.006;17.180;2022-11-20T10:36:44;26.10;;;20.30;;
47912;SDS011;33676;51.006;17.180;2022-11-20T10:39:35;23.50;;;18.90;;
47912;SDS011;33676;51.006;17.180;2022-11-20T10:42:11;24.00;;;17.40;;
47912;SDS011;33676;51.006;17.180;2022-11-20T10:44:52;22.30;;;17.60;;
47912;SDS011;33676;51.006;17.180;2022-11-20T10:47:35;22.90;;;18.10;;
47912;SDS011;33676;51.006;17.180;2022-11-20T10:50:05;22.70;;;17.50;;
47912;SDS011;33676;51.006;17.180;2022-11-20T10:53:04;22.60;;;17.70;;
47912;SDS011;33676;51.006;17.180;2022-11-20T10:55:53;16.80;;;14.40;;
47912;SDS011;33676;51.006;17.180;2022-11-20T10:58:45;18.80;;;15.50;;
47912;SDS011;33676;51.006;17.180;2022-11-20T11:01:22;19.90;;;15.10;;
47912;SDS011;33676;51.006;17.180;2022-11-20T11:03:51;17.30;;;14.30;;
47912;SDS011;33676;51.006;17.180;2022-11-20T11:06:42;19.20;;;15.90;;
47912;SDS011;33676;51.006;17.180;2022-11-20T11:09:21;19.00;;;15.70;;
47912;SDS011;33676;51.006;17.180;2022-11-20T11:11:58;33.30;;;26.50;;
47912;SDS011;33676;51.006;17.180;2022-11-20T11:14:48;22.10;;;18.10;;
47912;SDS011;33676;51.006;17.180;2022-11-20T11:17:22;25.70;;;23.00;;
47912;SDS011;33676;51.006;17.180;2022-11-20T11:19:59;25.10;;;22.90;;
47912;SDS011;33676;51.006;17.180;2022-11-20T11:22:29;15.70;;;14.00;;
47912;SDS011;33676;51.006;17.180;2022-11-20T11:25:00;18.60;;;16.60;;
47912;SDS011;33676;51.006;17.180;2022-11-20T11:27:30;18.60;;;16.60;;
47912;SDS011;33676;51.006;17.180;2022-11-20T11:30:12;17.60;;;15.80;;
47912;SDS011;33676;51.006;17.180;2022-11-20T11:32:42;18.50;;;16.60;;
47912;SDS011;33676;51.006;17.180;2022-11-20T11:35:25;18.50;;;16.40;;
47912;SDS011;33676;51.006;17.180;2022-11-20T11:38:13;18.90;;;16.40;;
47912;SDS011;33676;51.006;17.180;2022-11-20T11:40:45;17.70;;;15.40;;
47912;SDS011;33676;51.006;17.180;2022-11-20T11:43:20;17.50;;;15.60;;
47912;SDS011;33676;51.006;17.180;2022-11-20T11:49:11;16.60;;;14.30;;
47912;SDS011;33676;51.006;17.180;2022-11-20T11:54:37;15.30;;;13.10;;
47912;SDS011;33676;51.006;17.180;2022-11-20T12:00:05;14.00;;;11.70;;
47912;SDS011;33676;51.006;17.180;2022-11-20T12:05:40;13.60;;;11.70;;
47912;SDS011;33676;51.006;17.180;2022-11-20T12:08:30;14.10;;;11.30;;
47912;SDS011;33676;51.006;17.180;2022-11-20T12:11:11;16.50;;;12.10;;
47912;SDS011;33676;51.006;17.180;2022-11-20T12:13:48;12.40;;;11.10;;
47912;SDS011;33676;51.006;17.180;2022-11-20T12:16:26;13.80;;;10.30;;
47912;SDS011;33676;51.006;17.180;2022-11-20T12:18:54;17.40;;;12.20;;
47912;SDS011;33676;51.006;17.180;2022-11-20T12:24:09;14.30;;;12.10;;
47912;SDS011;33676;51.006;17.180;2022-11-20T12:35:38;12.80;;;10.70;;
47912;SDS011;33676;51.006;17.180;2022-11-20T12:42:11;13.40;;;10.60;;
47912;SDS011;33676;51.006;17.180;2022-11-20T12:48:51;16.30;;;13.30;;
47912;SDS011;33676;51.006;17.180;2022-11-20T12:51:50;20.00;;;18.00;;
47912;SDS011;33676;51.006;17.180;2022-11-20T12:54:59;17.00;;;14.50;;
47912;SDS011;33676;51.006;17.180;2022-11-20T12:57:45;22.70;;;20.40;;
47912;SDS011;33676;51.006;17.180;2022-11-20T13:00:22;21.70;;;17.20;;
47912;SDS011;33676;51.006;17.180;2022-11-20T13:03:24;20.10;;;14.60;;
47912;SDS011;33676;51.006;17.180;2022-11-20T13:06:15;19.50;;;14.70;;
47912;SDS011;33676;51.006;17.180;2022-11-20T13:08:55;18.80;;;15.90;;
47912;SDS011;33676;51.006;17.180;2022-11-20T13:11:31;16.20;;;13.30;;
47912;SDS011;33676;51.006;17.180;2022-11-20T13:14:26;14.70;;;13.10;;
47912;SDS011;33676;51.006;17.180;2022-11-20T13:17:13;15.40;;;11.80;;
47912;SDS011;33676;51.006;17.180;2022-11-20T13:19:53;19.00;;;12.80;;
47912;SDS011;33676;51.006;17.180;2022-11-20T13:22:41;17.10;;;13.30;;
47912;SDS011;33676;51.006;17.180;2022-11-20T13:25:44;15.80;;;12.50;;
47912;SDS011;33676;51.006;17.180;2022-11-20T13:30:53;19.00;;;12.40;;
47912;SDS011;33676;51.006;17.180;2022-11-20T13:33:27;15.30;;;13.70;;
47912;SDS011;33676;51.006;17.180;2022-11-20T13:36:04;17.40;;;13.30;;
47912;SDS011;33676;51.006;17.180;2022-11-20T13:38:43;16.90;;;13.40;;
47912;SDS011;33676;51.006;17.180;2022-11-20T13:41:26;14.70;;;11.80;;
47912;SDS011;33676;51.006;17.180;2022-11-20T13:44:06;14.60;;;10.80;;
47912;SDS011;33676;51.006;17.180;2022-11-20T13:46:44;11.80;;;10.50;;
47912;SDS011;33676;51.006;17.180;2022-11-20T13:49:28;13.40;;;10.40;;
47912;SDS011;33676;51.006;17.180;2022-11-20T13:52:08;15.10;;;10.20;;
47912;SDS011;33676;51.006;17.180;2022-11-20T13:55:16;12.00;;;9.40;;
47912;SDS011;33676;51.006;17.180;2022-11-20T14:01:09;14.70;;;10.70;;
47912;SDS011;33676;51.006;17.180;2022-11-20T14:03:43;12.60;;;10.70;;
47912;SDS011;33676;51.006;17.180;2022-11-20T14:06:33;15.70;;;11.60;;
47912;SDS011;33676;51.006;17.180;2022-11-20T14:09:25;19.40;;;15.60;;
47912;SDS011;33676;51.006;17.180;2022-11-20T14:11:55;14.50;;;12.80;;
47912;SDS011;33676;51.006;17.180;2022-11-20T14:14:29;17.80;;;15.50;;
47912;SDS011;33676;51.006;17.180;2022-11-20T14:17:07;16.60;;;14.70;;
47912;SDS011;33676;51.006;17.180;2022-11-20T14:19:37;18.20;;;16.20;;
47912;SDS011;33676;51.006;17.180;2022-11-20T14:22:29;23.60;;;19.60;;
47912;SDS011;33676;51.006;17.180;2022-11-20T14:27:35;31.40;;;27.10;;
47912;SDS011;33676;51.006;17.180;2022-11-20T14:33:10;69.40;;;52.40;;
47912;SDS011;33676;51.006;17.180;2022-11-20T14:35:49;27.20;;;21.00;;
47912;SDS011;33676;51.006;17.180;2022-11-20T14:38:28;38.30;;;31.50;;
47912;SDS011;33676;51.006;17.180;2022-11-20T14:41:14;25.80;;;18.60;;
47912;SDS011;33676;51.006;17.180;2022-11-20T14:43:47;25.30;;;20.10;;
47912;SDS011;33676;51.006;17.180;2022-11-20T14:46:23;23.00;;;17.50;;
47912;SDS011;33676;51.006;17.180;2022-11-20T14:48:56;17.20;;;13.20;;
47912;SDS011;33676;51.006;17.180;2022-11-20T14:51:33;13.90;;;11.60;;
47912;SDS011;33676;51.006;17.180;2022-11-20T14:54:17;14.70;;;11.00;;
47912;SDS011;33676;51.006;17.180;2022-11-20T14:57:00;18.00;;;13.40;;
47912;SDS011;33676;51.006;17.180;2022-11-20T14:59:32;17.00;;;12.30;;
47912;SDS011;33676;51.006;17.180;2022-11-20T15:02:08;25.00;;;13.70;;
47912;SDS011;33676;51.006;17.180;2022-11-20T15:04:56;16.20;;;11.70;;
47912;SDS011;33676;51.006;17.180;2022-11-20T15:07:36;16.60;;;13.90;;
47912;SDS011;33676;51.006;17.180;2022-11-20T15:10:11;18.80;;;14.50;;
47912;SDS011;33676;51.006;17.180;2022-11-20T15:12:48;18.60;;;13.50;;
47912;SDS011;33676;51.006;17.180;2022-11-20T15:15:50;19.80;;;13.00;;
47912;SDS011;33676;51.006;17.180;2022-11-20T15:18:22;22.90;;;13.40;;
47912;SDS011;33676;51.006;17.180;2022-11-20T15:20:55;20.00;;;13.50;;
47912;SDS011;33676;51.006;17.180;2022-11-20T15:23:25;24.30;;;15.40;;
47912;SDS011;33676;51.006;17.180;2022-11-20T15:25:55;25.60;;;14.60;;
47912;SDS011;33676;51.006;17.180;2022-11-20T15:28:36;22.70;;;14.90;;
47912;SDS011;33676;51.006;17.180;2022-11-20T15:31:11;22.40;;;16.00;;
47912;SDS011;33676;51.006;17.180;2022-11-20T15:33:41;29.10;;;18.30;;
47912;SDS011;33676;51.006;17.180;2022-11-20T15:36:10;25.30;;;18.50;;
47912;SDS011;33676;51.006;17.180;2022-11-20T15:38:39;26.20;;;16.00;;
47912;SDS011;33676;51.006;17.180;2022-11-20T15:41:07;19.90;;;15.40;;
47912;SDS011;33676;51.006;17.180;2022-11-20T15:43:36;16.80;;;12.10;;
47912;SDS011;33676;51.006;17.180;2022-11-20T15:46:06;23.90;;;15.30;;
47912;SDS011;33676;51.006;17.180;2022-11-20T15:48:49;23.00;;;16.90;;
47912;SDS011;33676;51.006;17.180;2022-11-20T15:51:29;22.10;;;16.30;;